createdAt,value
2019-02-03T00:01:06.594Z,97.00
2019-02-03T00:03:08.419Z,97.00
2019-02-03T00:05:10.522Z,97.20
2019-02-03T00:07:12.482Z,97.20
2019-02-03T00:09:19.284Z,96.70
2019-02-03T00:11:21.200Z,96.70
2019-02-03T00:13:23.026Z,96.70
2019-02-03T00:15:24.873Z,96.40
2019-02-03T00:17:26.625Z,96.10
2019-02-03T00:19:28.357Z,96.00
2019-02-03T00:21:30.292Z,95.70
2019-02-03T00:23:32.019Z,96.00
2019-02-03T00:25:33.746Z,96.20
2019-02-03T00:27:35.586Z,95.90
2019-02-03T00:29:37.297Z,95.90
2019-02-03T00:31:39.114Z,95.70
2019-02-03T00:33:40.838Z,95.80
2019-02-03T00:35:43.134Z,95.30
2019-02-03T00:37:44.963Z,95.50
2019-02-03T00:39:47.642Z,95.40
2019-02-03T00:41:49.602Z,95.60
2019-02-03T00:43:51.657Z,95.60
2019-02-03T00:45:53.368Z,95.10
2019-02-03T00:47:55.281Z,95.20
2019-02-03T00:49:57.174Z,95.30
2019-02-03T00:51:58.977Z,95.10
2019-02-03T00:54:00.909Z,95.30
2019-02-03T00:56:03.221Z,95.30
2019-02-03T00:58:05.152Z,95.50
2019-02-03T01:00:08.546Z,95.60
2019-02-03T01:02:10.456Z,95.60
2019-02-03T01:04:12.282Z,95.80
2019-02-03T01:06:14.068Z,95.40
2019-02-03T01:08:16.073Z,95.50
2019-02-03T01:10:18.830Z,95.20
2019-02-03T01:12:20.967Z,95.40
2019-02-03T01:14:23.037Z,95.20
2019-02-03T01:16:24.845Z,95.90
2019-02-03T01:18:26.566Z,96.00
2019-02-03T01:20:28.559Z,96.10
2019-02-03T01:22:30.382Z,96.00
2019-02-03T01:24:32.326Z,95.90
2019-02-03T01:26:34.503Z,95.50
2019-02-03T01:28:36.226Z,94.70
2019-02-03T01:30:38.253Z,94.50
2019-02-03T01:32:40.074Z,94.40
2019-02-03T01:34:41.812Z,94.30
2019-02-03T01:36:43.646Z,94.50
2019-02-03T01:38:45.373Z,93.80
2019-02-03T01:40:47.188Z,93.80
2019-02-03T01:42:48.991Z,93.30
2019-02-03T01:44:51.227Z,93.10
2019-02-03T01:46:53.029Z,92.40
2019-02-03T01:48:54.839Z,92.00
2019-02-03T01:50:56.640Z,92.20
2019-02-03T01:52:58.605Z,93.10
2019-02-03T01:55:00.410Z,93.40
2019-02-03T01:57:02.757Z,93.80
2019-02-03T01:59:04.979Z,93.50
2019-02-03T02:01:06.788Z,93.50
2019-02-03T02:03:08.676Z,94.00
2019-02-03T02:05:10.922Z,93.20
2019-02-03T02:07:12.725Z,92.70
2019-02-03T02:09:14.450Z,92.40
2019-02-03T02:11:16.272Z,92.70
2019-02-03T02:13:18.000Z,92.50
2019-02-03T02:15:19.950Z,92.50
2019-02-03T02:17:22.002Z,92.80
2019-02-03T02:19:23.705Z,93.20
2019-02-03T02:21:25.441Z,93.70
2019-02-03T02:23:27.260Z,93.90
2019-02-03T02:25:29.484Z,94.40
2019-02-03T02:27:31.201Z,94.40
2019-02-03T02:29:33.132Z,94.50
2019-02-03T02:31:34.893Z,94.00
2019-02-03T02:33:36.920Z,93.80
2019-02-03T02:35:39.070Z,93.50
2019-02-03T02:37:40.892Z,93.60
2019-02-03T02:39:42.738Z,93.80
2019-02-03T02:41:44.546Z,93.60
2019-02-03T02:43:46.287Z,93.70
2019-02-03T02:45:48.134Z,94.10
2019-02-03T02:47:50.338Z,93.60
2019-02-03T02:49:52.049Z,93.30
2019-02-03T02:51:53.798Z,92.90
2019-02-03T02:53:58.786Z,92.90
2019-02-03T02:55:59.539Z,92.90
2019-02-03T02:58:01.480Z,92.50
2019-02-03T03:00:05.193Z,92.80
2019-02-03T03:02:07.056Z,93.50
2019-02-03T03:04:08.885Z,93.40
2019-02-03T03:06:10.818Z,93.50
2019-02-03T03:08:19.150Z,92.90
2019-02-03T03:10:17.116Z,93.20
2019-02-03T03:12:18.950Z,93.10
2019-02-03T03:14:20.878Z,93.50
2019-02-03T03:16:22.594Z,93.20
2019-02-03T03:18:24.330Z,93.40
2019-02-03T03:20:26.315Z,93.20
2019-02-03T03:22:28.397Z,93.20
2019-02-03T03:24:31.201Z,93.20
2019-02-03T03:26:33.171Z,93.20
2019-02-03T03:28:35.100Z,92.90
2019-02-03T03:30:36.947Z,92.30
2019-02-03T03:32:38.815Z,92.60
2019-02-03T03:34:40.606Z,93.10
2019-02-03T03:36:42.433Z,93.60
2019-02-03T03:38:44.173Z,94.30
2019-02-03T03:40:46.111Z,94.90
2019-02-03T03:42:48.113Z,94.10
2019-02-03T03:44:49.952Z,93.70
2019-02-03T03:46:51.686Z,93.70
2019-02-03T03:48:53.421Z,93.10
2019-02-03T03:50:55.470Z,93.90
2019-02-03T03:52:57.345Z,93.90
2019-02-03T03:54:59.533Z,94.20
2019-02-03T03:57:01.510Z,95.00
2019-02-03T03:59:03.459Z,94.30
2019-02-03T04:01:05.287Z,94.40
2019-02-03T04:03:07.053Z,94.90
2019-02-03T04:05:09.223Z,95.30
2019-02-03T04:07:11.170Z,94.80
2019-02-03T04:09:13.805Z,95.10
2019-02-03T04:11:15.727Z,94.70
2019-02-03T04:13:17.531Z,95.00
2019-02-03T04:15:19.770Z,94.80
2019-02-03T04:17:21.640Z,93.80
2019-02-03T04:19:23.448Z,93.10
2019-02-03T04:21:25.305Z,92.40
2019-02-03T04:23:27.135Z,92.20
2019-02-03T04:25:28.855Z,91.80
2019-02-03T04:27:30.982Z,92.10
2019-02-03T04:29:32.997Z,92.30
2019-02-03T04:31:34.740Z,92.20
2019-02-03T04:33:36.512Z,92.10
2019-02-03T04:35:38.282Z,92.20
2019-02-03T04:37:40.122Z,92.70
2019-02-03T04:39:41.954Z,93.20
2019-02-03T04:41:43.818Z,93.20
2019-02-03T04:43:45.552Z,93.90
2019-02-03T04:45:47.577Z,93.60
2019-02-03T04:47:49.473Z,94.00
2019-02-03T04:49:51.330Z,94.20
2019-02-03T04:51:53.100Z,93.90
2019-02-03T04:53:54.854Z,93.70
2019-02-03T04:55:56.806Z,93.60
2019-02-03T04:57:58.754Z,93.60
2019-02-03T05:00:00.545Z,93.20
2019-02-03T05:02:02.333Z,93.20
2019-02-03T05:04:04.565Z,93.60
2019-02-03T05:06:06.316Z,93.90
2019-02-03T05:08:08.089Z,93.80
2019-02-03T05:10:10.635Z,93.80
2019-02-03T05:12:12.435Z,94.30
2019-02-03T05:14:14.153Z,94.70
2019-02-03T05:16:15.922Z,95.10
2019-02-03T05:18:17.672Z,95.20
2019-02-03T05:20:22.023Z,95.70
2019-02-03T05:22:23.890Z,95.90
2019-02-03T05:24:25.928Z,95.70
2019-02-03T05:26:27.894Z,96.30
2019-02-03T05:28:29.826Z,97.00
2019-02-03T05:30:32.865Z,97.10
2019-02-03T05:32:34.923Z,97.40
2019-02-03T05:34:36.715Z,97.90
2019-02-03T05:36:38.460Z,97.90
2019-02-03T05:38:40.201Z,98.00
2019-02-03T05:40:41.918Z,97.70
2019-02-03T05:42:43.921Z,97.80
2019-02-03T05:44:45.686Z,97.80
2019-02-03T05:46:47.630Z,97.70
2019-02-03T05:48:49.359Z,98.10
2019-02-03T05:50:51.634Z,97.80
2019-02-03T05:52:53.411Z,97.60
2019-02-03T05:54:55.167Z,97.90
2019-02-03T05:56:56.917Z,97.80
2019-02-03T05:58:58.777Z,97.90
2019-02-03T06:01:00.608Z,97.80
2019-02-03T06:03:02.480Z,98.00
2019-02-03T06:05:04.690Z,98.30
2019-02-03T06:07:06.401Z,98.30
2019-02-03T06:09:08.746Z,98.30
2019-02-03T06:11:10.514Z,98.30
2019-02-03T06:13:12.429Z,98.30
2019-02-03T06:15:14.593Z,98.30
2019-02-03T06:17:16.447Z,98.30
2019-02-03T06:19:18.230Z,98.30
2019-02-03T06:21:20.134Z,98.30
2019-02-03T06:23:22.049Z,98.30
2019-02-03T06:25:23.935Z,98.30
2019-02-03T06:27:25.961Z,98.30
2019-02-03T06:29:27.864Z,98.30
2019-02-03T06:31:29.717Z,98.30
2019-02-03T06:33:31.443Z,98.30
2019-02-03T06:35:33.561Z,98.30
2019-02-03T06:37:35.599Z,98.30
2019-02-03T06:39:47.926Z,98.30
2019-02-03T06:41:41.319Z,98.30
2019-02-03T06:43:43.066Z,98.30
2019-02-03T06:46:10.610Z,98.30
2019-02-03T06:48:14.397Z,98.30
2019-02-03T06:50:16.293Z,98.30
2019-02-03T06:52:18.992Z,98.30
2019-02-03T06:54:20.727Z,98.30
2019-02-03T06:56:22.571Z,98.30
2019-02-03T06:58:24.505Z,98.30
2019-02-03T07:00:26.643Z,98.30
2019-02-03T07:02:28.363Z,98.30
2019-02-03T07:04:30.095Z,98.30
2019-02-03T07:06:31.828Z,98.30
2019-02-03T07:08:33.577Z,98.30
2019-02-03T07:10:35.604Z,98.30
2019-02-03T07:12:37.322Z,98.30
2019-02-03T07:14:39.058Z,98.30
2019-02-03T07:16:44.458Z,98.30
2019-02-03T07:18:44.541Z,98.30
2019-02-03T07:20:46.307Z,98.30
2019-02-03T07:22:48.140Z,98.30
2019-02-03T07:24:50.069Z,98.30
2019-02-03T07:26:51.927Z,98.30
2019-02-03T07:28:53.709Z,98.30
2019-02-03T07:30:55.856Z,98.30
2019-02-03T07:32:57.697Z,98.30
2019-02-03T07:34:59.480Z,98.30
2019-02-03T07:37:01.659Z,98.30
2019-02-03T07:39:06.689Z,98.30
2019-02-03T07:41:08.459Z,98.30
2019-02-03T07:43:10.468Z,98.30
2019-02-03T07:45:12.521Z,98.30
2019-02-03T07:47:14.578Z,98.30
2019-02-03T07:49:16.349Z,98.30
2019-02-03T07:51:18.078Z,98.30
2019-02-03T07:53:19.830Z,98.30
2019-02-03T07:55:21.684Z,98.30
2019-02-03T07:57:23.781Z,98.30
2019-02-03T07:59:25.626Z,98.30
2019-02-03T08:01:27.740Z,98.30
2019-02-03T08:03:29.678Z,98.30
2019-02-03T08:05:31.525Z,98.30
2019-02-03T08:07:33.311Z,98.30
2019-02-03T08:09:35.070Z,98.30
2019-02-03T08:11:37.056Z,98.30
2019-02-03T08:13:39.002Z,98.30
2019-02-03T08:15:40.775Z,98.30
2019-02-03T08:17:42.677Z,98.30
2019-02-03T08:19:44.404Z,98.30
2019-02-03T08:21:46.253Z,98.30
2019-02-03T08:23:51.185Z,98.30
2019-02-03T08:25:51.950Z,98.30
2019-02-03T08:27:53.804Z,98.30
2019-02-03T08:29:55.560Z,98.30
2019-02-03T08:31:57.610Z,98.30
2019-02-03T08:33:59.557Z,98.30
2019-02-03T08:36:01.539Z,98.30
2019-02-03T08:38:03.498Z,98.30
2019-02-03T08:40:07.877Z,98.30
2019-02-03T08:42:09.976Z,98.30
2019-02-03T08:44:11.839Z,98.30
2019-02-03T08:46:13.661Z,98.30
2019-02-03T08:48:15.582Z,98.30
2019-02-03T08:50:18.297Z,98.30
2019-02-03T08:52:20.081Z,98.30
2019-02-03T08:54:21.820Z,98.30
2019-02-03T08:56:23.570Z,98.30
2019-02-03T08:58:25.327Z,98.30
2019-02-03T09:00:43.593Z,98.30
2019-02-03T09:02:46.216Z,98.30
2019-02-03T09:04:48.418Z,98.30
2019-02-03T09:06:50.180Z,98.30
2019-02-03T09:08:51.917Z,98.30
2019-02-03T09:10:53.981Z,98.30
2019-02-03T09:12:56.189Z,98.30
2019-02-03T09:14:58.006Z,98.30
2019-02-03T09:16:59.854Z,98.30
2019-02-03T09:19:01.637Z,98.30
2019-02-03T09:21:43.346Z,98.30
2019-02-03T09:23:45.458Z,98.30
2019-02-03T09:25:47.620Z,98.30
2019-02-03T09:27:49.622Z,98.30
2019-02-03T09:29:51.452Z,98.30
2019-02-03T09:31:53.329Z,98.30
2019-02-03T09:33:55.139Z,98.30
2019-02-03T09:35:57.449Z,98.30
2019-02-03T09:37:59.741Z,98.30
2019-02-03T09:40:01.749Z,98.30
2019-02-03T09:42:04.013Z,98.30
2019-02-03T09:44:06.009Z,98.30
2019-02-03T09:46:07.868Z,98.30
2019-02-03T09:48:09.645Z,98.30
2019-02-03T09:50:17.301Z,98.30
2019-02-03T09:52:19.037Z,98.30
2019-02-03T09:54:20.761Z,98.30
2019-02-03T09:56:23.001Z,98.30
2019-02-03T09:58:25.019Z,98.30
2019-02-03T10:00:28.986Z,98.30
2019-02-03T10:02:30.867Z,98.30
2019-02-03T10:04:32.891Z,98.30
2019-02-03T10:06:34.933Z,98.30
2019-02-03T10:08:40.662Z,98.30
2019-02-03T10:10:40.977Z,98.30
2019-02-03T10:12:42.739Z,98.30
2019-02-03T10:14:44.894Z,98.30
2019-02-03T10:16:47.634Z,98.30
2019-02-03T10:18:49.611Z,98.30
2019-02-03T10:20:51.626Z,98.30
2019-02-03T10:22:53.588Z,97.90
2019-02-03T10:24:55.461Z,97.10
2019-02-03T10:26:58.750Z,96.20
2019-02-03T10:29:02.817Z,94.90
2019-02-03T10:31:04.651Z,94.50
2019-02-03T10:33:06.861Z,94.40
2019-02-03T10:35:23.095Z,93.40
2019-02-03T10:37:18.983Z,93.80
2019-02-03T10:39:20.838Z,92.60
2019-02-03T10:41:24.415Z,90.90
2019-02-03T10:43:26.754Z,91.10
2019-02-03T10:45:29.126Z,91.00
2019-02-03T10:47:31.320Z,90.60
2019-02-03T10:49:33.228Z,89.60
2019-02-03T10:51:38.039Z,89.10
2019-02-03T10:53:39.950Z,87.00
2019-02-03T10:55:42.085Z,87.40
2019-02-03T10:57:44.589Z,88.70
2019-02-03T10:59:46.366Z,90.50
2019-02-03T11:01:48.425Z,86.70
2019-02-03T11:03:50.164Z,85.70
2019-02-03T11:05:53.673Z,86.20
2019-02-03T11:07:55.752Z,85.90
2019-02-03T11:09:57.921Z,85.20
2019-02-03T11:12:01.123Z,85.00
2019-02-03T11:14:03.553Z,82.30
2019-02-03T11:16:05.724Z,81.40
2019-02-03T11:18:08.827Z,80.70
2019-02-03T11:20:20.701Z,79.00
2019-02-03T11:22:22.418Z,78.20
2019-02-03T11:24:26.629Z,76.80
2019-02-03T11:26:28.585Z,77.10
2019-02-03T11:28:30.410Z,77.20
2019-02-03T11:30:32.632Z,76.20
2019-02-03T11:32:34.542Z,75.50
2019-02-03T11:34:39.209Z,74.60
2019-02-03T11:36:41.496Z,74.90
2019-02-03T11:38:43.399Z,75.30
2019-02-03T11:40:45.308Z,74.80
2019-02-03T11:42:50.332Z,76.80
2019-02-03T11:44:52.231Z,76.80
2019-02-03T11:46:54.078Z,76.80
2019-02-03T11:48:56.374Z,76.30
2019-02-03T11:50:58.391Z,77.00
2019-02-03T11:53:00.569Z,75.40
2019-02-03T11:55:05.709Z,74.70
2019-02-03T11:57:07.998Z,73.50
2019-02-03T11:59:10.263Z,74.00
2019-02-03T12:01:16.409Z,75.00
2019-02-03T12:04:45.530Z,74.90
2019-02-03T12:07:11.988Z,75.60
2019-02-03T12:09:10.159Z,76.40
2019-02-03T12:11:12.212Z,75.30
2019-02-03T12:13:14.133Z,74.00
2019-02-03T12:15:19.280Z,72.00
2019-02-03T12:17:21.134Z,71.90
2019-02-03T12:19:23.287Z,70.00
2019-02-03T12:21:25.210Z,68.10
2019-02-03T12:23:28.440Z,66.30
2019-02-03T12:25:33.566Z,64.50
2019-02-03T12:27:35.453Z,65.70
2019-02-03T12:29:39.776Z,66.20
2019-02-03T12:31:41.827Z,64.50
2019-02-03T12:33:46.790Z,64.80
2019-02-03T12:35:48.796Z,66.40
2019-02-03T12:37:51.599Z,66.50
2019-02-03T12:39:53.388Z,67.10
2019-02-03T12:41:55.313Z,69.10
2019-02-03T12:43:57.192Z,71.30
2019-02-03T12:45:59.181Z,72.80
2019-02-03T12:48:01.394Z,73.10
2019-02-03T12:50:07.644Z,75.20
2019-02-03T12:52:09.509Z,75.30
2019-02-03T12:54:11.647Z,74.40
2019-02-03T12:56:13.670Z,73.30
2019-02-03T12:58:15.799Z,69.50
2019-02-03T13:00:21.489Z,67.90
2019-02-03T13:02:23.698Z,67.70
2019-02-03T13:04:25.555Z,67.90
2019-02-03T13:06:29.092Z,67.70
2019-02-03T13:08:31.423Z,68.00
2019-02-03T13:10:37.127Z,68.80
2019-02-03T13:12:41.778Z,69.40
2019-02-03T13:14:43.715Z,71.00
2019-02-03T13:16:45.967Z,71.70
2019-02-03T13:18:47.835Z,70.30
2019-02-03T13:20:52.536Z,68.60
2019-02-03T13:22:55.506Z,69.80
2019-02-03T13:24:57.317Z,70.00
2019-02-03T13:27:01.349Z,67.60
2019-02-03T13:29:03.506Z,65.40
2019-02-03T13:31:05.446Z,67.20
2019-02-03T13:33:07.486Z,68.10
2019-02-03T13:35:09.502Z,67.20
2019-02-03T13:37:33.946Z,66.70
2019-02-03T13:39:36.344Z,65.80
2019-02-03T13:41:41.130Z,63.50
2019-02-03T13:43:43.568Z,63.30
2019-02-03T13:45:47.014Z,62.90
2019-02-03T13:47:49.079Z,63.00
2019-02-03T13:49:51.235Z,62.40
2019-02-03T13:51:55.187Z,62.00
2019-02-03T13:53:57.098Z,61.50
2019-02-03T13:55:59.096Z,61.60
2019-02-03T13:58:01.078Z,62.20
2019-02-03T14:00:06.046Z,62.50
2019-02-03T14:02:08.370Z,63.10
2019-02-03T14:04:11.411Z,64.30
2019-02-03T14:06:13.358Z,64.80
2019-02-03T14:08:15.331Z,65.30
2019-02-03T14:10:23.142Z,65.20
2019-02-03T14:12:25.150Z,66.20
2019-02-03T14:14:26.946Z,67.30
2019-02-03T14:16:28.930Z,67.70
2019-02-03T14:18:30.720Z,67.80
2019-02-03T14:20:33.320Z,67.20
2019-02-03T14:22:35.614Z,68.00
2019-02-03T14:24:38.396Z,68.40
2019-02-03T14:26:40.687Z,67.00
2019-02-03T14:28:43.062Z,67.40
2019-02-03T14:30:45.555Z,67.00
2019-02-03T14:32:47.450Z,66.90
2019-02-03T14:34:49.399Z,67.30
2019-02-03T14:36:51.280Z,68.40
2019-02-03T14:38:53.174Z,68.90
2019-02-03T14:40:54.972Z,69.10
2019-02-03T14:43:01.863Z,69.60
2019-02-03T14:45:00.722Z,70.40
2019-02-03T14:47:02.885Z,70.00
2019-02-03T14:49:05.242Z,69.60
2019-02-03T14:51:07.287Z,70.30
2019-02-03T14:53:11.629Z,70.60
2019-02-03T14:55:15.378Z,70.60
2019-02-03T14:57:17.290Z,70.50
2019-02-03T14:59:19.490Z,70.30
2019-02-03T15:01:21.395Z,71.40
2019-02-03T15:03:25.157Z,72.00
2019-02-03T15:05:27.315Z,72.90
2019-02-03T15:07:37.526Z,72.90
2019-02-03T15:09:32.980Z,73.40
2019-02-03T15:11:34.752Z,73.20
2019-02-03T15:13:36.857Z,73.90
2019-02-03T15:15:38.831Z,74.40
2019-02-03T15:17:40.989Z,74.90
2019-02-03T15:19:42.884Z,74.80
2019-02-03T15:21:44.681Z,75.30
2019-02-03T15:23:46.646Z,76.50
2019-02-03T15:25:48.660Z,77.30
2019-02-03T15:27:50.747Z,78.50
2019-02-03T15:29:52.900Z,78.90
2019-02-03T15:31:54.694Z,79.50
2019-02-03T15:33:56.482Z,80.40
2019-02-03T15:35:58.433Z,80.20
2019-02-03T15:38:00.662Z,80.70
2019-02-03T15:40:03.082Z,81.60
2019-02-03T15:42:05.015Z,82.20
2019-02-03T15:44:07.168Z,82.60
2019-02-03T15:46:08.922Z,83.30
2019-02-03T15:48:18.087Z,84.10
2019-02-03T15:50:27.262Z,85.10
2019-02-03T15:52:30.740Z,86.10
2019-02-03T15:54:36.778Z,87.10
2019-02-03T15:56:40.169Z,87.70
2019-02-03T15:58:42.122Z,88.60
2019-02-03T16:00:49.155Z,89.80
2019-02-03T16:02:51.143Z,91.10
2019-02-03T16:04:53.345Z,92.50
2019-02-03T16:06:55.056Z,94.10
2019-02-03T16:08:56.805Z,95.30
2019-02-03T16:10:59.517Z,96.30
2019-02-03T16:13:01.393Z,97.30
2019-02-03T16:15:04.481Z,98.30
2019-02-03T16:17:06.296Z,98.30
2019-02-03T16:19:08.464Z,98.30
2019-02-03T16:21:10.270Z,98.30
2019-02-03T16:23:11.994Z,98.30
2019-02-03T16:25:14.077Z,98.30
2019-02-03T16:27:15.794Z,98.30
2019-02-03T16:29:17.748Z,98.30
2019-02-03T16:31:19.578Z,98.30
2019-02-03T16:33:21.395Z,98.30
2019-02-03T16:35:23.225Z,98.30
2019-02-03T16:37:25.097Z,98.30
2019-02-03T16:39:29.567Z,98.30
2019-02-03T16:41:30.889Z,98.30
2019-02-03T16:43:32.598Z,98.30
2019-02-03T16:45:34.617Z,98.30
2019-02-03T16:47:36.911Z,98.30
2019-02-03T16:49:39.007Z,98.30
2019-02-03T16:51:41.584Z,98.30
2019-02-03T16:53:46.634Z,98.30
2019-02-03T16:55:58.716Z,98.30
2019-02-03T16:58:01.109Z,98.30
2019-02-03T17:00:06.990Z,98.30
2019-02-03T17:02:09.077Z,98.30
2019-02-03T17:04:10.885Z,98.30
2019-02-03T17:06:13.355Z,98.30
2019-02-03T17:08:15.245Z,98.30
2019-02-03T17:10:18.913Z,98.30
2019-02-03T17:12:21.186Z,98.30
2019-02-03T17:14:23.311Z,98.30
2019-02-03T17:16:25.509Z,98.30
2019-02-03T17:19:09.320Z,98.30
2019-02-03T17:21:11.071Z,98.30
2019-02-03T17:23:14.300Z,98.30
2019-02-03T17:25:17.687Z,98.30
2019-02-03T17:27:20.112Z,98.30
2019-02-03T17:29:22.189Z,98.30
2019-02-03T17:31:24.042Z,98.30
2019-02-03T17:33:25.980Z,98.30
2019-02-03T17:35:28.371Z,98.30
2019-02-03T17:37:30.393Z,98.30
2019-02-03T17:39:32.315Z,98.30
2019-02-03T17:41:34.742Z,98.30
2019-02-03T17:43:36.884Z,98.30
2019-02-03T17:45:38.830Z,98.30
2019-02-03T17:47:40.640Z,98.30
2019-02-03T17:49:42.395Z,98.30
2019-02-03T17:51:44.502Z,98.30
2019-02-03T17:53:46.309Z,98.30
2019-02-03T17:55:48.076Z,98.30
2019-02-03T17:57:50.049Z,98.30
2019-02-03T17:59:52.395Z,98.30
2019-02-03T18:01:54.532Z,98.30
2019-02-03T18:03:56.464Z,98.30
2019-02-03T18:05:58.292Z,98.30
2019-02-03T18:08:00.021Z,98.30
2019-02-03T18:10:02.242Z,98.30
2019-02-03T18:12:04.344Z,98.30
2019-02-03T18:14:06.193Z,98.30
2019-02-03T18:16:07.907Z,98.30
2019-02-03T18:18:13.589Z,98.30
2019-02-03T18:20:18.986Z,98.30
2019-02-03T18:22:20.942Z,98.30
2019-02-03T18:24:22.663Z,98.30
2019-02-03T18:26:24.555Z,98.30
2019-02-03T18:28:26.457Z,98.30
2019-02-03T18:30:28.405Z,98.30
2019-02-03T18:32:30.325Z,98.30
2019-02-03T18:34:32.076Z,98.30
2019-02-03T18:36:33.870Z,98.30
2019-02-03T18:38:35.601Z,98.30
2019-02-03T18:40:37.518Z,98.30
2019-02-03T18:42:39.363Z,98.30
2019-02-03T18:44:41.095Z,98.30
2019-02-03T18:46:43.186Z,98.30
2019-02-03T18:48:47.625Z,98.30
2019-02-03T18:50:49.434Z,98.30
2019-02-03T18:52:51.281Z,98.30
2019-02-03T18:54:55.722Z,98.30
2019-02-03T18:56:57.867Z,98.30
2019-02-03T18:58:59.640Z,98.30
2019-02-03T19:01:01.594Z,98.30
2019-02-03T19:03:04.145Z,98.30
2019-02-03T19:05:07.549Z,98.30
2019-02-03T19:07:09.480Z,98.30
2019-02-03T19:09:11.320Z,98.30
2019-02-03T19:11:13.230Z,98.30
2019-02-03T19:13:15.044Z,98.30
2019-02-03T19:15:17.538Z,98.30
2019-02-03T19:17:19.241Z,98.30
2019-02-03T19:19:21.057Z,98.30
2019-02-03T19:21:22.910Z,98.30
2019-02-03T19:23:26.025Z,98.30
2019-02-03T19:25:27.906Z,98.30
2019-02-03T19:27:29.642Z,98.30
2019-02-03T19:29:33.882Z,98.30
2019-02-03T19:31:35.704Z,98.30
2019-02-03T19:33:37.537Z,98.30
2019-02-03T19:35:39.289Z,98.30
2019-02-03T19:37:41.229Z,98.30
2019-02-03T19:39:43.065Z,98.30
2019-02-03T19:41:44.791Z,98.30
2019-02-03T19:43:46.933Z,98.30
2019-02-03T19:45:48.694Z,98.30
2019-02-03T19:47:50.603Z,98.30
2019-02-03T19:49:52.305Z,98.30
2019-02-03T19:51:54.305Z,98.30
2019-02-03T19:53:56.131Z,98.30
2019-02-03T19:55:57.953Z,98.30
2019-02-03T19:57:59.785Z,98.30
2019-02-03T20:00:01.494Z,98.30
2019-02-03T20:02:03.608Z,98.30
2019-02-03T20:04:05.313Z,98.30
2019-02-03T20:06:07.406Z,98.30
2019-02-03T20:08:09.334Z,98.30
2019-02-03T20:10:13.225Z,98.30
2019-02-03T20:12:15.030Z,98.30
2019-02-03T20:14:16.733Z,98.30
2019-02-03T20:16:18.478Z,98.30
2019-02-03T20:18:22.424Z,98.30
2019-02-03T20:20:27.470Z,98.30
2019-02-03T20:22:29.227Z,98.30
2019-02-03T20:24:30.949Z,98.30
2019-02-03T20:26:32.684Z,98.30
2019-02-03T20:28:34.499Z,98.30
2019-02-03T20:30:39.090Z,98.30
2019-02-03T20:32:40.125Z,98.30
2019-02-03T20:34:41.848Z,98.30
2019-02-03T20:36:43.830Z,98.30
2019-02-03T20:38:47.099Z,98.30
2019-02-03T20:40:48.994Z,98.30
2019-02-03T20:42:50.925Z,98.30
2019-02-03T20:44:52.674Z,98.30
2019-02-03T20:46:54.401Z,98.30
2019-02-03T20:48:56.125Z,98.30
2019-02-03T20:50:57.951Z,98.30
2019-02-03T20:52:59.763Z,98.30
2019-02-03T20:55:01.741Z,98.30
2019-02-03T20:57:04.342Z,98.30
2019-02-03T20:59:06.259Z,98.30
2019-02-03T21:01:08.190Z,98.30
2019-02-03T21:03:10.199Z,98.30
2019-02-03T21:05:12.147Z,98.30
2019-02-03T21:07:13.883Z,98.00
2019-02-03T21:09:15.705Z,97.60
2019-02-03T21:11:17.654Z,97.20
2019-02-03T21:13:19.510Z,96.30
2019-02-03T21:15:32.454Z,96.00
2019-02-03T21:17:26.261Z,95.50
2019-02-03T21:19:27.997Z,95.10
2019-02-03T21:21:29.821Z,95.10
2019-02-03T21:23:31.686Z,94.90
2019-02-03T21:25:33.508Z,94.80
2019-02-03T21:27:35.434Z,94.90
2019-02-03T21:29:37.507Z,95.50
2019-02-03T21:31:39.245Z,95.00
2019-02-03T21:33:41.562Z,95.50
2019-02-03T21:35:43.365Z,95.30
2019-02-03T21:37:45.346Z,95.20
2019-02-03T21:39:47.162Z,94.40
2019-02-03T21:41:48.886Z,94.20
2019-02-03T21:43:50.936Z,94.80
2019-02-03T21:45:54.143Z,94.40
2019-02-03T21:47:56.232Z,93.30
2019-02-03T21:49:58.109Z,93.10
2019-02-03T21:52:00.034Z,93.20
2019-02-03T21:54:02.232Z,92.90
2019-02-03T21:56:04.157Z,92.70
2019-02-03T21:58:05.893Z,92.80
2019-02-03T22:00:14.303Z,92.40
2019-02-03T22:02:17.769Z,92.60
2019-02-03T22:04:19.845Z,92.60
2019-02-03T22:06:21.646Z,92.30
2019-02-03T22:08:23.553Z,92.30
2019-02-03T22:10:27.406Z,92.00
2019-02-03T22:12:29.158Z,91.60
2019-02-03T22:14:31.139Z,91.40
2019-02-03T22:16:32.949Z,91.40
2019-02-03T22:18:34.646Z,92.50
2019-02-03T22:20:36.562Z,92.20
2019-02-03T22:22:38.297Z,92.70
2019-02-03T22:24:40.130Z,92.50
2019-02-03T22:26:42.020Z,92.10
2019-02-03T22:28:43.771Z,92.90
2019-02-03T22:30:45.690Z,92.70
2019-02-03T22:32:47.739Z,92.50
2019-02-03T22:34:49.451Z,92.40
2019-02-03T22:36:51.448Z,92.90
2019-02-03T22:38:53.313Z,93.60
2019-02-03T22:40:55.450Z,93.40
2019-02-03T22:42:57.400Z,93.00
2019-02-03T22:44:59.237Z,93.10
2019-02-03T22:47:02.458Z,92.90
2019-02-03T22:49:05.246Z,92.80
2019-02-03T22:51:07.064Z,92.40
2019-02-03T22:53:08.878Z,92.50
2019-02-03T22:55:10.912Z,92.80
2019-02-03T22:57:12.665Z,92.90
2019-02-03T22:59:14.377Z,93.00
2019-02-03T23:01:21.885Z,92.70
2019-02-03T23:03:32.450Z,92.80
2019-02-03T23:05:34.146Z,92.50
2019-02-03T23:07:35.892Z,91.70
2019-02-03T23:09:38.316Z,91.60
2019-02-03T23:11:40.102Z,91.30
2019-02-03T23:13:41.939Z,90.60
2019-02-03T23:15:43.756Z,90.80
2019-02-03T23:17:45.462Z,91.00
2019-02-03T23:19:47.177Z,90.60
2019-02-03T23:21:48.882Z,90.10
2019-02-03T23:23:50.886Z,90.20
2019-02-03T23:25:52.833Z,90.80
2019-02-03T23:27:54.837Z,90.70
2019-02-03T23:29:56.549Z,90.70
2019-02-03T23:31:58.389Z,90.80
2019-02-03T23:34:00.096Z,90.50
2019-02-03T23:36:01.914Z,90.50
2019-02-03T23:38:03.846Z,90.10
2019-02-03T23:40:06.190Z,90.10
2019-02-03T23:42:08.266Z,89.70
2019-02-03T23:44:10.109Z,90.00
2019-02-03T23:46:11.805Z,89.60
2019-02-03T23:48:13.537Z,89.60
2019-02-03T23:50:15.586Z,89.60
2019-02-03T23:52:17.289Z,89.70
2019-02-03T23:54:19.189Z,89.50
2019-02-03T23:56:24.114Z,89.30
2019-02-03T23:58:26.102Z,89.40
